Time;durP1;ratioP1;P1;durP2;ratioP2;P2;SDS_P1;SDS_P2;PMS_P1;PMS_P2;Temp;Humidity;BMP_temperature;BMP_pressure;BME280_temperature;BME280_humidity;BME280_pressure;Samples;Min_cycle;Max_cycle;Signal;HPM_P1;HPM_P2
2021/04/22 00:01:17;;;;;;;21.58;3.63;;;5.00;99.90;;;;;;4978879;28;20032;-76
2021/04/22 00:03:43;;;;;;;23.65;3.70;;;5.00;99.90;;;;;;4984410;28;20027;-75
2021/04/22 00:06:09;;;;;;;23.10;3.08;;;4.90;99.90;;;;;;4985880;28;20042;-76
2021/04/22 00:08:35;;;;;;;21.77;4.40;;;4.90;99.90;;;;;;4971570;28;20031;-77
2021/04/22 00:11:01;;;;;;;27.90;4.28;;;5.00;99.90;;;;;;4951396;28;20027;-75
2021/04/22 00:13:29;;;;;;;18.20;2.92;;;5.00;99.90;;;;;;4968492;28;20051;-75
2021/04/22 00:15:56;;;;;;;24.95;4.05;;;5.00;99.90;;;;;;4954369;28;20071;-77
2021/04/22 00:18:21;;;;;;;21.95;3.83;;;5.00;99.90;;;;;;4961411;28;20039;-76
2021/04/22 00:20:47;;;;;;;18.13;3.65;;;5.00;99.90;;;;;;4959602;28;20027;-76
2021/04/22 00:23:16;;;;;;;25.40;4.30;;;5.00;99.90;;;;;;4959085;28;20023;-77
2021/04/22 00:25:42;;;;;;;21.33;3.83;;;5.00;99.90;;;;;;4965951;28;20053;-76
2021/04/22 00:28:09;;;;;;;23.65;4.72;;;4.90;99.90;;;;;;4970803;28;20026;-75
2021/04/22 00:30:35;;;;;;;15.75;3.38;;;4.90;99.90;;;;;;4970952;28;20098;-76
2021/04/22 00:33:07;;;;;;;19.70;4.90;;;4.90;99.90;;;;;;4965340;28;20023;-76
2021/04/22 00:35:34;;;;;;;15.15;3.92;;;4.90;99.90;;;;;;4972667;28;20040;-77
2021/04/22 00:38:00;;;;;;;19.17;4.35;;;4.90;99.90;;;;;;4968985;28;20027;-76
2021/04/22 00:40:28;;;;;;;29.85;4.65;;;4.90;99.90;;;;;;4946870;28;20035;-76
2021/04/22 00:42:58;;;;;;;25.63;4.95;;;4.80;99.90;;;;;;4971225;28;20177;-77
2021/04/22 00:45:25;;;;;;;26.60;4.68;;;4.80;99.90;;;;;;4966577;28;20079;-75
2021/04/22 00:47:51;;;;;;;30.27;4.78;;;4.80;99.90;;;;;;4962123;28;20571;-75
2021/04/22 00:50:21;;;;;;;21.30;4.05;;;4.90;99.90;;;;;;4968781;28;20103;-76
2021/04/22 00:52:47;;;;;;;27.98;5.15;;;5.00;99.90;;;;;;4971329;28;20020;-75
2021/04/22 00:55:20;;;;;;;24.13;4.43;;;5.00;99.90;;;;;;4975005;28;20030;-76
2021/04/22 00:57:46;;;;;;;18.52;3.75;;;4.90;99.90;;;;;;4981620;28;20031;-76
2021/04/22 01:00:14;;;;;;;26.23;4.45;;;4.90;99.90;;;;;;4976326;28;20031;-76
2021/04/22 01:02:42;;;;;;;25.20;4.60;;;4.90;99.90;;;;;;4943944;28;20030;-77
2021/04/22 01:05:20;;;;;;;24.77;4.50;;;4.80;99.90;;;;;;4964884;28;20031;-76
2021/04/22 01:07:46;;;;;;;21.25;4.38;;;4.90;99.90;;;;;;4982281;28;20034;-73
2021/04/22 01:10:14;;;;;;;25.67;4.93;;;4.90;99.90;;;;;;4969268;28;20023;-76
2021/04/22 01:12:40;;;;;;;26.70;5.25;;;4.90;99.90;;;;;;4973626;28;20041;-75
2021/04/22 01:15:09;;;;;;;25.13;4.70;;;4.90;99.90;;;;;;4966106;28;20042;-75
2021/04/22 01:17:36;;;;;;;25.67;5.78;;;4.90;99.90;;;;;;4957494;28;20012;-77
2021/04/22 01:20:11;;;;;;;32.63;4.97;;;4.80;99.90;;;;;;4968800;28;20030;-77
2021/04/22 01:22:37;;;;;;;35.28;4.90;;;4.70;99.90;;;;;;4962759;28;20027;-76
2021/04/22 01:25:06;;;;;;;22.80;5.32;;;4.70;99.90;;;;;;4971467;28;20088;-77
2021/04/22 01:27:31;;;;;;;30.88;6.38;;;4.70;99.90;;;;;;4976022;28;20034;-77
2021/04/22 01:29:57;;;;;;;25.80;6.78;;;4.80;99.90;;;;;;4960290;28;20499;-77
2021/04/22 01:32:23;;;;;;;39.47;6.43;;;4.60;99.90;;;;;;4984193;28;20035;-76
2021/04/22 01:34:50;;;;;;;30.55;5.75;;;4.60;99.90;;;;;;4980872;28;20443;-76
2021/04/22 01:37:16;;;;;;;21.38;4.95;;;4.60;99.90;;;;;;4976968;28;20018;-75
2021/04/22 01:39:45;;;;;;;21.50;6.65;;;4.60;99.90;;;;;;4964213;28;20035;-77
2021/04/22 01:42:12;;;;;;;27.15;5.95;;;4.50;99.90;;;;;;4966649;28;20490;-76
2021/04/22 01:44:38;;;;;;;36.30;6.07;;;4.50;99.90;;;;;;4948123;28;20044;-76
2021/04/22 01:47:05;;;;;;;22.85;5.20;;;4.50;99.90;;;;;;4968654;28;20087;-76
2021/04/22 01:49:31;;;;;;;20.50;5.50;;;4.50;99.90;;;;;;4958309;28;20031;-76
2021/04/22 01:51:56;;;;;;;28.30;7.22;;;4.50;99.90;;;;;;4949363;28;20041;-77
2021/04/22 01:54:23;;;;;;;34.42;6.82;;;4.50;99.90;;;;;;4967813;28;20074;-76
2021/04/22 01:56:48;;;;;;;31.45;6.65;;;4.40;99.90;;;;;;4961663;28;20058;-76
2021/04/22 01:59:17;;;;;;;24.95;5.93;;;4.40;99.90;;;;;;4961555;28;20081;-77
2021/04/22 02:01:43;;;;;;;34.00;6.72;;;4.30;99.90;;;;;;4965912;28;20038;-77
2021/04/22 02:04:08;;;;;;;31.42;5.95;;;4.30;99.90;;;;;;4977703;28;20019;-77
2021/04/22 02:06:37;;;;;;;31.35;5.80;;;4.30;99.90;;;;;;4972227;28;20055;-77
2021/04/22 02:09:03;;;;;;;41.30;6.53;;;4.30;99.90;;;;;;4976599;28;20109;-75
2021/04/22 02:11:30;;;;;;;25.27;5.97;;;4.30;99.90;;;;;;4971293;28;20028;-76
2021/04/22 02:13:55;;;;;;;17.63;5.05;;;4.20;99.90;;;;;;5002873;28;20031;-75
2021/04/22 02:16:24;;;;;;;35.70;6.22;;;4.30;99.90;;;;;;4961943;28;20077;-76
2021/04/22 02:18:49;;;;;;;18.02;5.72;;;4.30;99.90;;;;;;4948542;28;20098;-76
2021/04/22 02:21:15;;;;;;;21.88;5.80;;;4.30;99.90;;;;;;4958884;28;20058;-76
2021/04/22 02:23:41;;;;;;;21.50;6.93;;;4.30;99.90;;;;;;4971457;28;20035;-75
2021/04/22 02:26:08;;;;;;;29.83;5.78;;;4.30;99.90;;;;;;4965984;28;20015;-76
2021/04/22 02:28:34;;;;;;;27.80;7.05;;;4.30;99.90;;;;;;4982923;28;20015;-76
2021/04/22 02:31:00;;;;;;;33.05;6.18;;;4.40;99.90;;;;;;4953695;28;20030;-76
2021/04/22 02:33:27;;;;;;;28.85;5.75;;;4.40;99.90;;;;;;4978690;28;20047;-76
2021/04/22 02:35:54;;;;;;;23.10;5.15;;;4.30;99.90;;;;;;4961573;28;20685;-77
2021/04/22 02:38:20;;;;;;;24.92;5.43;;;4.40;99.90;;;;;;4954665;28;20054;-76
2021/04/22 02:40:47;;;;;;;25.92;4.82;;;4.40;99.90;;;;;;4964167;28;20050;-75
2021/04/22 02:43:18;;;;;;;19.60;4.25;;;4.50;99.90;;;;;;4956752;28;20029;-76
2021/04/22 02:45:50;;;;;;;22.80;4.65;;;4.40;99.90;;;;;;4963415;28;20043;-74
2021/04/22 02:48:20;;;;;;;17.35;5.13;;;4.40;99.90;;;;;;4925140;28;20031;-75
2021/04/22 02:50:49;;;;;;;27.88;5.43;;;4.30;99.90;;;;;;4961107;28;20110;-76
2021/04/22 02:53:16;;;;;;;24.48;5.78;;;4.30;99.90;;;;;;4970252;28;20035;-76
2021/04/22 02:55:44;;;;;;;21.83;5.60;;;4.40;99.90;;;;;;4958994;28;20084;-79
2021/04/22 02:58:11;;;;;;;31.30;5.30;;;4.30;99.90;;;;;;4961791;28;20031;-80
2021/04/22 03:00:37;;;;;;;23.75;4.78;;;4.30;99.90;;;;;;4966309;28;20023;-79
2021/04/22 03:03:03;;;;;;;25.13;5.72;;;4.30;99.90;;;;;;4954135;28;20054;-77
2021/04/22 03:05:29;;;;;;;29.98;6.43;;;4.30;99.90;;;;;;4965113;28;20027;-76
2021/04/22 03:07:57;;;;;;;25.58;5.38;;;4.20;99.90;;;;;;4961481;28;20019;-78
2021/04/22 03:10:24;;;;;;;21.23;5.18;;;4.20;99.90;;;;;;4970694;28;20076;-77
2021/04/22 03:12:54;;;;;;;20.10;5.65;;;4.20;99.90;;;;;;4974298;28;20030;-74
2021/04/22 03:15:21;;;;;;;32.00;5.65;;;4.10;99.90;;;;;;4976999;28;20050;-80
2021/04/22 03:17:48;;;;;;;30.85;6.28;;;4.10;99.90;;;;;;4970288;28;20027;-77
2021/04/22 03:20:16;;;;;;;27.92;6.72;;;4.10;99.90;;;;;;4950153;28;20110;-76
2021/04/22 03:22:45;;;;;;;21.20;6.13;;;4.10;99.90;;;;;;4976108;28;20035;-78
2021/04/22 03:25:12;;;;;;;29.73;6.88;;;4.00;99.90;;;;;;4970073;28;20023;-76
2021/04/22 03:27:39;;;;;;;32.95;5.88;;;4.00;99.90;;;;;;4960299;28;20030;-76
2021/04/22 03:30:08;;;;;;;35.65;7.20;;;4.00;99.90;;;;;;4965025;28;20055;-76
2021/04/22 03:32:35;;;;;;;31.17;6.75;;;4.00;99.90;;;;;;4996989;28;20036;-78
2021/04/22 03:35:04;;;;;;;31.42;7.25;;;4.00;99.90;;;;;;5003384;28;20054;-75
2021/04/22 03:37:31;;;;;;;23.27;6.57;;;4.00;99.90;;;;;;4964596;28;20029;-76
2021/04/22 03:39:59;;;;;;;29.27;7.90;;;4.00;99.90;;;;;;4984432;28;20062;-76
2021/04/22 03:42:25;;;;;;;36.30;8.13;;;4.00;99.90;;;;;;4969804;28;20023;-77
2021/04/22 03:44:50;;;;;;;32.25;8.18;;;4.00;99.90;;;;;;4949821;28;20054;-75
2021/04/22 03:47:16;;;;;;;26.75;7.70;;;4.10;99.90;;;;;;4972422;28;20037;-75
2021/04/22 03:49:43;;;;;;;31.40;8.75;;;4.10;99.90;;;;;;4966748;28;20083;-79
2021/04/22 03:52:10;;;;;;;32.30;8.07;;;4.10;99.90;;;;;;4964836;28;20031;-74
2021/04/22 03:54:36;;;;;;;27.63;7.38;;;4.20;99.90;;;;;;4977086;28;20027;-75
2021/04/22 03:57:03;;;;;;;29.35;6.82;;;4.20;99.90;;;;;;4966524;28;20142;-73
2021/04/22 03:59:30;;;;;;;44.55;6.35;;;4.20;99.90;;;;;;4967416;28;20027;-75
2021/04/22 04:01:56;;;;;;;21.92;6.32;;;4.20;99.90;;;;;;4980943;28;20033;-74
2021/04/22 04:04:25;;;;;;;22.52;6.43;;;4.20;99.90;;;;;;4979330;28;20035;-75
2021/04/22 04:06:53;;;;;;;15.57;4.85;;;4.20;99.90;;;;;;4975506;28;20120;-74
2021/04/22 04:09:18;;;;;;;21.75;5.68;;;4.20;99.90;;;;;;4989038;28;20027;-74
2021/04/22 04:11:44;;;;;;;23.23;4.80;;;4.20;99.90;;;;;;4985701;28;20051;-75
2021/04/22 04:14:11;;;;;;;23.15;4.97;;;4.30;99.90;;;;;;4963738;28;20032;-77
2021/04/22 04:16:36;;;;;;;19.90;4.57;;;4.20;99.90;;;;;;4973657;28;20113;-74
2021/04/22 04:19:03;;;;;;;28.75;5.07;;;4.30;99.90;;;;;;4963423;28;20525;-76
2021/04/22 04:21:29;;;;;;;14.30;4.10;;;4.30;99.90;;;;;;4943646;28;20102;-75
2021/04/22 04:23:55;;;;;;;17.50;4.65;;;4.30;99.90;;;;;;4964738;28;20046;-75
2021/04/22 04:26:21;;;;;;;25.92;4.80;;;4.30;99.90;;;;;;4961801;28;20015;-77
2021/04/22 04:28:46;;;;;;;20.10;5.35;;;4.30;99.90;;;;;;4961392;28;20055;-75
2021/04/22 04:31:13;;;;;;;27.23;5.07;;;4.30;99.90;;;;;;4965634;28;20026;-77
2021/04/22 04:33:39;;;;;;;18.50;4.93;;;4.30;99.90;;;;;;4940112;28;20085;-76
2021/04/22 04:36:06;;;;;;;14.43;3.97;;;4.30;99.90;;;;;;4966297;28;20072;-76
2021/04/22 04:38:37;;;;;;;17.40;4.25;;;4.30;99.90;;;;;;4969300;28;20047;-76
2021/04/22 04:41:03;;;;;;;23.92;4.50;;;4.30;99.90;;;;;;4978346;28;20019;-72
2021/04/22 04:43:29;;;;;;;25.67;4.18;;;4.30;99.90;;;;;;4961927;28;20096;-75
2021/04/22 04:45:56;;;;;;;24.25;4.15;;;4.30;99.90;;;;;;4963557;28;20031;-75
2021/04/22 04:48:22;;;;;;;24.13;4.38;;;4.30;99.90;;;;;;4960007;28;20563;-74
2021/04/22 04:50:48;;;;;;;17.48;4.03;;;4.30;99.90;;;;;;4958715;28;20495;-74
2021/04/22 04:53:15;;;;;;;12.68;3.33;;;4.30;99.90;;;;;;4966073;28;20035;-76
2021/04/22 04:55:46;;;;;;;26.45;4.03;;;4.30;99.90;;;;;;4956384;28;20069;-74
2021/04/22 04:58:12;;;;;;;22.70;4.15;;;4.40;99.90;;;;;;4954503;28;20031;-75
2021/04/22 05:00:39;;;;;;;15.63;3.50;;;4.40;99.90;;;;;;4958151;28;20045;-72
2021/04/22 05:03:04;;;;;;;15.35;3.65;;;4.40;99.90;;;;;;4950878;28;20031;-75
2021/04/22 05:05:30;;;;;;;21.40;3.75;;;4.40;99.90;;;;;;4963012;28;20503;-76
2021/04/22 05:07:56;;;;;;;23.40;4.32;;;4.50;99.90;;;;;;4958554;28;20015;-76
2021/04/22 05:10:21;;;;;;;15.75;4.10;;;4.40;99.90;;;;;;4964678;28;20083;-74
2021/04/22 05:12:47;;;;;;;12.75;3.38;;;4.40;99.90;;;;;;4969492;28;20539;-77
2021/04/22 05:15:13;;;;;;;18.92;3.88;;;4.50;99.90;;;;;;4947356;28;20042;-75
2021/04/22 05:17:39;;;;;;;19.83;4.20;;;4.50;99.90;;;;;;4945252;28;20042;-73
2021/04/22 05:20:06;;;;;;;22.45;3.58;;;4.40;99.90;;;;;;4971202;28;20027;-76
2021/04/22 05:22:33;;;;;;;19.40;3.85;;;4.40;99.90;;;;;;4962728;28;20098;-76
2021/04/22 05:24:59;;;;;;;17.88;4.00;;;4.40;99.90;;;;;;4976621;28;20054;-74
2021/04/22 05:27:25;;;;;;;26.40;4.60;;;4.50;99.90;;;;;;4967120;28;20061;-73
2021/04/22 05:29:52;;;;;;;26.60;4.05;;;4.50;99.90;;;;;;4956173;28;20027;-77
2021/04/22 05:32:18;;;;;;;22.50;3.33;;;4.50;99.90;;;;;;4943138;28;20019;-76
2021/04/22 05:34:44;;;;;;;21.48;4.03;;;4.60;99.90;;;;;;4947737;28;20043;-77
2021/04/22 05:37:10;;;;;;;17.55;4.53;;;4.60;99.90;;;;;;4962842;28;20019;-77
2021/04/22 05:39:38;;;;;;;29.70;4.28;;;4.70;99.90;;;;;;4958509;28;20149;-74
2021/04/22 05:42:04;;;;;;;16.40;3.88;;;4.70;99.90;;;;;;4950116;28;20035;-75
2021/04/22 05:44:30;;;;;;;21.05;3.42;;;4.80;99.90;;;;;;4943611;28;20042;-75
2021/04/22 05:46:56;;;;;;;15.35;3.63;;;4.80;99.90;;;;;;4967832;28;20047;-75
2021/04/22 05:49:21;;;;;;;16.73;5.55;;;4.90;99.90;;;;;;4963169;28;20037;-75
2021/04/22 05:51:48;;;;;;;15.07;3.72;;;4.90;99.90;;;;;;4970428;28;20025;-78
2021/04/22 05:54:14;;;;;;;14.88;3.45;;;5.00;99.90;;;;;;4957390;28;20059;-72
2021/04/22 05:56:41;;;;;;;17.85;3.22;;;5.00;99.90;;;;;;4967192;28;20027;-74
2021/04/22 05:59:08;;;;;;;12.52;3.08;;;5.10;99.90;;;;;;4955891;28;20509;-76
2021/04/22 06:01:35;;;;;;;15.95;3.25;;;5.20;99.90;;;;;;4947467;28;20553;-76
2021/04/22 06:04:03;;;;;;;18.95;3.25;;;5.30;99.90;;;;;;4978527;28;20023;-77
2021/04/22 06:06:29;;;;;;;21.80;4.53;;;5.40;99.90;;;;;;4970894;28;20035;-78
2021/04/22 06:08:54;;;;;;;21.20;3.17;;;5.50;99.90;;;;;;4947860;28;20032;-76
2021/04/22 06:11:21;;;;;;;20.30;3.40;;;5.60;99.90;;;;;;4960359;28;20034;-78
2021/04/22 06:13:47;;;;;;;20.90;3.60;;;5.70;99.90;;;;;;4968876;28;20022;-76
2021/04/22 06:16:16;;;;;;;25.10;3.58;;;5.70;99.90;;;;;;4965996;28;20474;-77
2021/04/22 06:18:43;;;;;;;25.67;3.85;;;5.80;99.90;;;;;;4965377;28;20032;-76
2021/04/22 06:21:10;;;;;;;12.63;2.90;;;5.90;99.90;;;;;;4968382;28;20070;-76
2021/04/22 06:23:35;;;;;;;19.88;3.35;;;6.00;99.90;;;;;;4969407;28;20031;-77
2021/04/22 06:26:01;;;;;;;18.73;3.15;;;6.10;99.90;;;;;;4974131;28;20027;-77
2021/04/22 06:28:31;;;;;;;18.77;3.03;;;6.20;99.90;;;;;;4959627;28;20089;-77
2021/04/22 06:30:56;;;;;;;26.38;3.38;;;6.30;99.90;;;;;;5013013;28;20102;-77
2021/04/22 06:33:22;;;;;;;15.75;3.55;;;6.30;99.90;;;;;;4975785;28;20065;-76
2021/04/22 06:35:47;;;;;;;22.40;3.10;;;6.30;99.90;;;;;;4992471;28;20030;-78
2021/04/22 06:38:13;;;;;;;15.13;2.97;;;6.30;99.90;;;;;;4961303;28;20161;-76
2021/04/22 06:40:39;;;;;;;15.20;2.70;;;6.30;99.90;;;;;;4956283;28;20046;-74
2021/04/22 06:43:05;;;;;;;20.92;3.88;;;6.30;99.90;;;;;;4979609;28;20412;-77
2021/04/22 06:45:31;;;;;;;11.73;3.03;;;6.40;99.90;;;;;;4956858;28;20087;-78
2021/04/22 06:47:57;;;;;;;13.07;2.17;;;6.40;99.90;;;;;;4965635;28;20057;-78
2021/04/22 06:50:24;;;;;;;18.55;2.67;;;6.50;99.90;;;;;;4964517;28;20027;-76
2021/04/22 06:52:51;;;;;;;24.90;4.25;;;6.50;99.90;;;;;;4963588;28;20122;-78
2021/04/22 06:55:23;;;;;;;19.48;2.85;;;6.50;99.90;;;;;;4969483;28;20034;-78
2021/04/22 06:57:54;;;;;;;17.48;3.08;;;6.60;99.90;;;;;;4964791;28;20027;-80
2021/04/22 07:00:22;;;;;;;13.57;2.42;;;6.70;99.90;;;;;;4965182;28;20499;-79
2021/04/22 07:02:50;;;;;;;15.63;3.10;;;6.80;99.90;;;;;;4965209;28;20054;-76
2021/04/22 07:05:17;;;;;;;18.65;2.80;;;6.90;99.90;;;;;;4974297;28;20055;-78
2021/04/22 07:07:42;;;;;;;19.33;2.50;;;7.00;99.90;;;;;;4966982;28;20030;-78
2021/04/22 07:10:10;;;;;;;16.20;2.42;;;7.10;99.90;;;;;;4996817;28;20031;-76
2021/04/22 07:12:36;;;;;;;8.27;2.15;;;7.10;99.90;;;;;;4961681;28;20035;-77
2021/04/22 07:15:03;;;;;;;19.10;2.80;;;7.20;99.90;;;;;;4973862;28;20015;-75
2021/04/22 07:17:28;;;;;;;17.88;2.60;;;7.30;99.90;;;;;;4958817;28;20032;-80
2021/04/22 07:19:56;;;;;;;18.08;3.45;;;7.30;99.90;;;;;;5008265;28;20019;-77
2021/04/22 07:22:24;;;;;;;22.13;3.25;;;7.30;99.90;;;;;;4958408;28;20445;-77
2021/04/22 07:24:49;;;;;;;13.27;2.75;;;7.50;99.90;;;;;;5006034;28;20031;-77
2021/04/22 07:27:16;;;;;;;9.75;2.67;;;7.40;99.90;;;;;;5008458;28;20023;-76
2021/04/22 07:29:47;;;;;;;19.08;2.75;;;7.40;99.90;;;;;;4968328;28;20042;-74
2021/04/22 07:32:16;;;;;;;17.33;2.85;;;7.50;99.90;;;;;;5009476;28;20027;-76
2021/04/22 07:34:46;;;;;;;16.40;2.35;;;7.30;99.90;;;;;;4966080;28;20053;-78
2021/04/22 07:37:12;;;;;;;10.88;2.70;;;7.30;99.90;;;;;;4963884;28;20027;-74
2021/04/22 07:39:39;;;;;;;17.20;2.33;;;7.50;99.90;;;;;;4959889;28;20110;-76
2021/04/22 07:42:13;;;;;;;10.00;1.85;;;7.50;99.90;;;;;;5020135;28;20058;-77
2021/04/22 07:44:48;;;;;;;18.90;2.65;;;7.60;99.90;;;;;;5013978;28;20078;-76
2021/04/22 07:47:17;;;;;;;10.48;1.95;;;7.50;99.90;;;;;;4972739;28;20030;-74
2021/04/22 07:49:46;;;;;;;13.57;1.83;;;7.50;99.90;;;;;;4950912;28;20030;-78
2021/04/22 07:52:14;;;;;;;16.33;2.80;;;7.50;99.90;;;;;;4970804;28;20016;-76
2021/04/22 07:54:43;;;;;;;12.25;2.42;;;7.70;99.90;;;;;;4963241;28;20035;-78
2021/04/22 07:57:09;;;;;;;12.40;2.53;;;7.90;99.90;;;;;;4971294;28;20036;-77
2021/04/22 07:59:35;;;;;;;9.50;1.65;;;7.90;99.90;;;;;;5004783;28;20631;-75
2021/04/22 08:02:01;;;;;;;15.98;2.40;;;7.80;99.90;;;;;;5012136;28;20015;-78
2021/04/22 08:04:26;;;;;;;9.02;1.70;;;7.90;99.90;;;;;;4989001;28;20019;-79
2021/04/22 08:06:53;;;;;;;16.60;2.50;;;8.20;99.90;;;;;;4973938;28;20015;-77
2021/04/22 08:09:20;;;;;;;10.85;2.20;;;8.00;99.90;;;;;;4993986;28;20027;-77
2021/04/22 08:11:48;;;;;;;10.57;1.95;;;8.20;99.90;;;;;;4991722;28;20057;-77
2021/04/22 08:14:26;;;;;;;14.55;2.00;;;8.00;99.90;;;;;;5020201;28;20092;-77
2021/04/22 08:16:54;;;;;;;7.60;2.58;;;8.00;99.90;;;;;;4968992;28;20031;-76
2021/04/22 08:19:19;;;;;;;14.45;2.10;;;7.80;99.90;;;;;;4974099;28;20046;-75
2021/04/22 08:21:46;;;;;;;19.67;2.72;;;7.90;99.90;;;;;;4984249;28;20011;-78
2021/04/22 08:24:30;;;;;;;10.95;2.70;;;8.00;99.90;;;;;;4969157;28;20111;-77
2021/04/22 08:27:03;;;;;;;18.33;2.00;;;7.90;99.80;;;;;;4990539;28;20083;-78
2021/04/22 08:29:30;;;;;;;17.02;2.67;;;8.20;99.90;;;;;;4985326;28;20016;-80
2021/04/22 08:32:02;;;;;;;7.45;2.42;;;8.30;99.70;;;;;;4977197;28;20091;-77
2021/04/22 08:34:28;;;;;;;12.95;1.98;;;8.20;99.10;;;;;;4987111;28;20034;-77
2021/04/22 08:37:00;;;;;;;11.00;2.50;;;8.10;99.50;;;;;;4977980;28;20043;-77
2021/04/22 08:39:28;;;;;;;16.55;2.25;;;8.20;99.00;;;;;;4960828;28;20018;-76
2021/04/22 08:42:12;;;;;;;11.43;2.85;;;7.90;99.40;;;;;;4983852;28;20042;-75
2021/04/22 08:44:39;;;;;;;12.70;2.17;;;7.70;99.90;;;;;;4967274;28;20046;-77
2021/04/22 08:47:07;;;;;;;13.45;2.65;;;8.20;99.70;;;;;;4978037;28;20035;-77
2021/04/22 08:49:35;;;;;;;16.50;2.55;;;8.60;99.00;;;;;;4978330;28;20023;-77
2021/04/22 08:52:03;;;;;;;10.57;2.90;;;8.80;98.10;;;;;;4963919;28;20027;-78
2021/04/22 08:54:29;;;;;;;13.35;2.92;;;8.70;98.40;;;;;;4965151;28;20061;-74
2021/04/22 08:56:56;;;;;;;12.60;2.35;;;8.30;98.80;;;;;;4977196;28;20019;-75
2021/04/22 08:59:26;;;;;;;11.43;2.72;;;8.30;99.60;;;;;;4992953;28;20012;-76
2021/04/22 09:01:52;;;;;;;18.95;3.15;;;8.60;98.80;;;;;;4985456;28;20041;-76
2021/04/22 09:04:19;;;;;;;10.35;2.60;;;8.50;98.90;;;;;;4971406;28;20376;-76
2021/04/22 09:06:44;;;;;;;11.07;2.67;;;8.50;99.30;;;;;;4952026;28;20031;-74
2021/04/22 09:09:10;;;;;;;17.15;2.88;;;8.50;99.70;;;;;;4966369;28;20075;-74
2021/04/22 09:11:45;;;;;;;17.40;2.90;;;8.20;99.90;;;;;;4960849;28;20019;-75
2021/04/22 09:14:19;;;;;;;21.10;2.50;;;8.20;99.90;;;;;;4977919;28;20404;-76
2021/04/22 09:16:47;;;;;;;15.95;2.92;;;8.10;99.90;;;;;;4977662;28;20528;-76
2021/04/22 09:19:19;;;;;;;13.10;2.50;;;8.30;99.90;;;;;;4962377;28;20034;-77
2021/04/22 09:21:53;;;;;;;10.73;3.20;;;8.40;99.20;;;;;;4970443;28;20030;-74
2021/04/22 09:24:26;;;;;;;17.10;2.97;;;8.60;98.50;;;;;;4955789;28;20035;-77
2021/04/22 09:26:59;;;;;;;11.98;2.40;;;8.50;98.60;;;;;;4977365;28;20061;-78
2021/04/22 09:32:19;;;;;;;8.93;1.90;;;8.60;98.00;;;;;;4966711;28;20074;-68
2021/04/22 09:34:50;;;;;;;7.70;2.30;;;8.60;98.60;;;;;;4973578;28;20031;-66
2021/04/22 09:37:21;;;;;;;17.05;3.00;;;9.10;97.10;;;;;;4947424;28;20396;-66
2021/04/22 09:39:47;;;;;;;9.23;2.10;;;9.50;96.90;;;;;;4949597;28;20610;-64
2021/04/22 09:42:14;;;;;;;8.80;2.10;;;9.50;97.60;;;;;;4950996;28;20066;-65
2021/04/22 09:44:47;;;;;;;13.82;2.35;;;9.60;96.90;;;;;;4965876;28;20023;-69
2021/04/22 09:47:17;;;;;;;15.52;2.65;;;9.30;97.00;;;;;;4970717;28;20073;-64
2021/04/22 09:49:45;;;;;;;12.77;2.95;;;9.30;97.30;;;;;;4969754;28;20433;-68
2021/04/22 09:52:14;;;;;;;25.00;2.85;;;9.50;96.80;;;;;;4964846;28;20043;-67
2021/04/22 09:54:48;;;;;;;11.05;2.72;;;9.00;97.30;;;;;;4951003;28;20054;-66
2021/04/22 09:57:29;;;;;;;11.18;2.28;;;9.30;97.70;;;;;;4950424;28;20035;-65
2021/04/22 09:59:56;;;;;;;12.02;2.70;;;9.70;97.10;;;;;;4956397;28;20281;-64
2021/04/22 10:02:22;;;;;;;20.70;2.90;;;9.70;96.20;;;;;;4958305;28;20062;-67
2021/04/22 10:04:55;;;;;;;8.13;2.83;;;9.20;96.80;;;;;;4968521;28;20026;-69
2021/04/22 10:07:29;;;;;;;9.80;2.08;;;9.10;97.40;;;;;;4959726;28;20011;-67
2021/04/22 10:10:01;;;;;;;9.50;2.42;;;9.40;96.70;;;;;;4951097;28;20015;-68
2021/04/22 10:12:27;;;;;;;15.77;2.92;;;9.70;96.50;;;;;;4950899;28;20053;-67
2021/04/22 10:14:55;;;;;;;11.88;2.67;;;9.60;95.00;;;;;;4956705;28;20031;-67
2021/04/22 10:17:25;;;;;;;17.55;2.92;;;9.80;95.30;;;;;;4973996;28;20024;-65
2021/04/22 10:20:06;;;;;;;13.40;2.65;;;10.00;95.40;;;;;;4955546;28;20488;-68
2021/04/22 10:22:37;;;;;;;10.27;1.95;;;9.70;94.60;;;;;;4961580;28;20069;-65
2021/04/22 10:25:06;;;;;;;6.40;2.47;;;10.00;94.30;;;;;;4961726;28;20041;-65
2021/04/22 10:27:32;;;;;;;12.82;3.35;;;10.00;93.70;;;;;;4957009;28;20204;-69
2021/04/22 10:29:58;;;;;;;9.75;2.78;;;10.30;92.80;;;;;;4948563;28;20025;-66
2021/04/22 10:32:26;;;;;;;12.57;2.50;;;10.60;93.20;;;;;;4963016;28;20632;-67
2021/04/22 10:34:52;;;;;;;11.07;2.88;;;10.50;92.90;;;;;;4958520;28;20034;-67
2021/04/22 10:37:21;;;;;;;11.85;3.00;;;10.20;92.30;;;;;;4955694;28;20507;-68
2021/04/22 10:39:48;;;;;;;11.95;2.50;;;9.80;93.50;;;;;;4968372;28;20545;-66
2021/04/22 10:42:16;;;;;;;6.85;2.28;;;9.90;95.10;;;;;;4959835;28;20039;-67
2021/04/22 10:44:42;;;;;;;10.68;2.45;;;10.20;95.00;;;;;;4967596;28;20049;-69
2021/04/22 10:47:08;;;;;;;13.45;2.55;;;10.50;94.00;;;;;;4952607;28;20420;-67
2021/04/22 10:49:34;;;;;;;10.27;2.50;;;10.10;94.70;;;;;;4950226;28;20035;-66
2021/04/22 10:52:03;;;;;;;9.95;3.15;;;9.90;95.00;;;;;;4970874;28;20592;-68
2021/04/22 10:54:29;;;;;;;6.57;2.22;;;10.20;94.80;;;;;;4958553;28;20019;-68
2021/04/22 10:57:08;;;;;;;9.77;2.45;;;10.40;95.00;;;;;;5039980;28;20400;-65
2021/04/22 10:59:35;;;;;;;10.15;2.38;;;10.40;94.20;;;;;;4958791;28;20035;-68
2021/04/22 11:02:22;;;;;;;12.05;2.38;;;10.90;92.70;;;;;;4963518;28;20028;-68
2021/04/22 11:04:50;;;;;;;9.65;2.70;;;10.80;92.90;;;;;;4964276;28;20050;-69
2021/04/22 11:07:20;;;;;;;11.40;2.47;;;11.00;92.90;;;;;;4961785;28;20046;-65
2021/04/22 11:09:46;;;;;;;12.27;3.00;;;11.40;90.90;;;;;;4957771;28;20065;-67
2021/04/22 11:12:12;;;;;;;9.75;2.47;;;11.00;91.20;;;;;;4940985;28;20035;-69
2021/04/22 11:14:42;;;;;;;11.77;2.90;;;10.70;92.40;;;;;;4962278;28;20031;-67
2021/04/22 11:17:09;;;;;;;10.63;2.28;;;11.20;91.80;;;;;;4959326;28;20023;-66
2021/04/22 11:19:39;;;;;;;11.27;2.78;;;11.20;91.00;;;;;;4956118;28;20026;-68
2021/04/22 11:22:29;;;;;;;9.10;2.25;;;11.50;91.70;;;;;;4963113;28;20031;-68
2021/04/22 11:24:58;;;;;;;12.88;2.88;;;12.10;91.10;;;;;;4958917;28;20030;-65
2021/04/22 11:27:26;;;;;;;10.88;2.55;;;11.60;88.60;;;;;;4938635;28;20042;-66
2021/04/22 11:29:52;;;;;;;13.20;3.55;;;11.40;90.60;;;;;;4954385;28;20115;-68
2021/04/22 11:32:22;;;;;;;13.85;3.70;;;11.60;90.10;;;;;;4965773;28;20351;-66
2021/04/22 11:34:50;;;;;;;20.08;3.42;;;11.40;89.30;;;;;;4956027;28;20477;-67
2021/04/22 11:37:22;;;;;;;11.73;3.40;;;11.80;89.30;;;;;;4952760;28;20278;-67
2021/04/22 11:39:48;;;;;;;10.35;2.83;;;11.80;88.00;;;;;;4964465;28;20535;-69
2021/04/22 11:42:14;;;;;;;11.90;2.78;;;11.80;88.90;;;;;;4958011;28;20115;-68
2021/04/22 11:44:42;;;;;;;9.98;2.50;;;11.70;88.10;;;;;;4971308;28;20105;-65
2021/04/22 11:47:29;;;;;;;13.25;3.45;;;11.50;90.00;;;;;;4967809;28;20026;-67
2021/04/22 11:50:10;;;;;;;9.93;3.08;;;11.20;90.10;;;;;;4966021;22;20110;-66
2021/04/22 11:53:04;;;;;;;15.80;3.30;;;11.80;90.30;;;;;;4938899;28;20059;-68
2021/04/22 11:55:35;;;;;;;17.48;3.60;;;12.00;90.20;;;;;;4948912;28;20055;-65
2021/04/22 11:58:09;;;;;;;7.60;3.05;;;12.20;86.00;;;;;;5009938;28;20452;-65
2021/04/22 12:00:40;;;;;;;11.73;3.58;;;12.00;84.60;;;;;;4936331;28;20126;-65
2021/04/22 12:03:07;;;;;;;7.90;2.53;;;12.20;81.90;;;;;;4933616;28;20039;-66
2021/04/22 12:05:34;;;;;;;12.93;3.08;;;12.50;81.30;;;;;;4933733;28;20043;-66
2021/04/22 12:08:05;;;;;;;11.02;3.75;;;12.60;80.70;;;;;;5010507;28;20110;-64
2021/04/22 12:10:34;;;;;;;14.05;4.05;;;12.90;82.00;;;;;;4942011;28;20024;-65
2021/04/22 12:13:10;;;;;;;9.32;3.10;;;12.60;82.20;;;;;;4937817;28;20110;-66
2021/04/22 12:15:39;;;;;;;14.15;3.35;;;13.00;82.80;;;;;;4927469;28;20045;-65
2021/04/22 12:18:05;;;;;;;10.70;3.63;;;12.80;82.00;;;;;;4937898;28;20024;-66
2021/04/22 12:20:31;;;;;;;15.15;3.50;;;12.70;80.50;;;;;;4944520;28;20362;-63
2021/04/22 12:22:57;;;;;;;7.93;3.65;;;12.00;83.10;;;;;;4994427;28;20359;-70
2021/04/22 12:25:25;;;;;;;18.52;2.72;;;12.10;84.70;;;;;;4935925;28;20320;-66
2021/04/22 12:28:03;;;;;;;12.18;3.20;;;12.60;83.70;;;;;;4933196;28;20082;-65
2021/04/22 12:30:39;;;;;;;8.50;2.63;;;13.00;81.40;;;;;;4997246;28;20031;-66
2021/04/22 12:33:05;;;;;;;17.63;4.05;;;13.20;81.10;;;;;;4936418;28;20027;-66
2021/04/22 12:35:31;;;;;;;7.55;3.13;;;12.60;82.90;;;;;;4941199;28;20116;-64
2021/04/22 12:38:09;;;;;;;12.75;3.25;;;12.90;80.80;;;;;;4946624;28;20448;-65
2021/04/22 12:40:35;;;;;;;10.32;4.50;;;13.20;80.90;;;;;;5005517;28;20027;-65
2021/04/22 12:43:01;;;;;;;11.70;4.07;;;13.20;78.60;;;;;;4945992;28;20114;-66
2021/04/22 12:45:27;;;;;;;14.13;3.65;;;12.20;80.80;;;;;;4937769;28;20039;-66
2021/04/22 12:48:01;;;;;;;11.32;2.95;;;12.40;81.30;;;;;;5005859;28;20042;-66
2021/04/22 12:50:26;;;;;;;12.80;3.90;;;12.80;81.00;;;;;;4990598;28;20658;-66
2021/04/22 12:53:11;;;;;;;16.10;3.83;;;13.20;80.30;;;;;;4926560;28;20041;-65